createdAt,value
2022-08-22T00:03:01.249Z,12.13
2022-08-22T00:07:40.165Z,14.43
2022-08-22T00:11:54.524Z,14.13
2022-08-22T00:16:17.906Z,12.68
2022-08-22T00:20:35.943Z,15.15
2022-08-22T00:24:51.338Z,15.43
2022-08-22T00:29:02.755Z,15.02
2022-08-22T00:33:20.325Z,18.42
2022-08-22T00:37:38.908Z,14.15
2022-08-22T00:42:31.745Z,14.27
2022-08-22T00:46:54.180Z,13.43
2022-08-22T00:51:21.145Z,12.50
2022-08-22T00:55:49.190Z,14.07
2022-08-22T01:00:21.690Z,15.45
2022-08-22T01:04:42.319Z,16.20
2022-08-22T01:09:02.770Z,16.33
2022-08-22T01:13:31.581Z,17.02
2022-08-22T01:17:36.438Z,15.23
2022-08-22T01:22:06.073Z,13.85
2022-08-22T01:26:14.661Z,13.77
2022-08-22T01:34:53.993Z,14.45
2022-08-22T01:39:02.299Z,13.65
2022-08-22T01:43:17.823Z,14.23
2022-08-22T01:47:28.868Z,11.25
2022-08-22T01:51:58.672Z,18.10
2022-08-22T01:56:11.282Z,16.10
2022-08-22T02:00:18.754Z,16.67
2022-08-22T02:04:55.366Z,17.77
2022-08-22T02:09:13.051Z,15.70
2022-08-22T02:13:30.662Z,14.80
2022-08-22T02:17:49.482Z,16.13
2022-08-22T02:22:13.584Z,14.52
2022-08-22T02:26:34.190Z,14.95
2022-08-22T02:31:12.084Z,22.85
2022-08-22T02:35:33.338Z,20.13
2022-08-22T02:39:49.554Z,19.88
2022-08-22T02:44:05.471Z,19.30
2022-08-22T02:48:17.561Z,12.88
2022-08-22T02:52:29.110Z,20.55
2022-08-22T02:56:39.555Z,14.60
2022-08-22T03:00:59.253Z,15.10
2022-08-22T03:05:28.218Z,16.42
2022-08-22T03:09:37.243Z,16.27
2022-08-22T03:14:18.024Z,14.00
2022-08-22T03:18:26.378Z,17.58
2022-08-22T03:22:45.998Z,18.65
2022-08-22T03:27:05.156Z,15.55
2022-08-22T03:31:12.062Z,15.63
2022-08-22T03:35:26.518Z,16.23
2022-08-22T03:39:46.725Z,13.70
2022-08-22T03:44:18.542Z,14.90
2022-08-22T03:48:32.871Z,13.93
2022-08-22T03:53:16.260Z,16.13
2022-08-22T03:57:52.650Z,15.85
2022-08-22T04:02:43.318Z,17.70
2022-08-22T04:06:58.820Z,16.88
2022-08-22T04:11:36.387Z,13.65
2022-08-22T04:15:47.619Z,14.32
2022-08-22T04:20:06.825Z,15.10
2022-08-22T04:24:30.683Z,17.08
2022-08-22T04:28:46.683Z,18.10
2022-08-22T04:33:14.541Z,15.40
2022-08-22T04:37:45.033Z,18.40
2022-08-22T04:41:52.017Z,16.05
2022-08-22T04:46:23.299Z,15.35
2022-08-22T04:50:43.157Z,18.35
2022-08-22T04:54:51.285Z,11.98
2022-08-22T04:59:30.318Z,18.27
2022-08-22T05:03:44.763Z,13.82
2022-08-22T05:07:54.319Z,15.75
2022-08-22T05:12:09.295Z,17.15
2022-08-22T05:16:19.308Z,14.05
2022-08-22T05:20:25.763Z,15.82
2022-08-22T05:24:33.918Z,16.15
2022-08-22T05:28:41.535Z,19.10
2022-08-22T05:32:50.267Z,13.77
2022-08-22T05:37:35.864Z,14.55
2022-08-22T05:41:39.895Z,13.38
2022-08-22T05:45:46.403Z,12.27
2022-08-22T05:50:00.005Z,15.48
2022-08-22T05:54:14.623Z,17.40
2022-08-22T05:58:39.089Z,12.25
2022-08-22T06:03:18.101Z,11.98
2022-08-22T06:07:46.393Z,12.43
2022-08-22T06:12:16.467Z,18.80
2022-08-22T06:16:37.823Z,13.50
2022-08-22T06:21:05.002Z,10.32
2022-08-22T06:25:14.056Z,16.35
2022-08-22T06:29:30.330Z,15.27
2022-08-22T06:33:38.577Z,14.35
2022-08-22T06:38:01.543Z,14.03
2022-08-22T06:42:31.358Z,10.98
2022-08-22T06:46:40.190Z,12.52
2022-08-22T06:50:45.616Z,12.05
2022-08-22T06:54:51.277Z,15.90
2022-08-22T06:58:58.807Z,13.93
2022-08-22T07:03:10.807Z,10.90
2022-08-22T07:07:24.012Z,10.35
2022-08-22T07:11:29.670Z,10.45
2022-08-22T07:15:36.800Z,10.93
2022-08-22T07:19:52.472Z,14.90
2022-08-22T07:23:56.202Z,11.38
2022-08-22T07:28:20.046Z,16.70
2022-08-22T07:32:55.134Z,9.93
2022-08-22T07:37:22.595Z,14.27
2022-08-22T07:41:33.391Z,12.05
2022-08-22T07:45:39.474Z,8.27
2022-08-22T07:50:00.211Z,11.05
2022-08-22T07:54:08.326Z,11.77
2022-08-22T07:58:13.691Z,8.02
2022-08-22T08:02:19.280Z,10.80
2022-08-22T08:06:24.962Z,7.70
2022-08-22T08:10:32.831Z,11.18
2022-08-22T08:14:39.774Z,8.57
2022-08-22T08:18:44.637Z,15.50
2022-08-22T08:22:49.142Z,13.10
2022-08-22T08:27:17.715Z,9.55
2022-08-22T08:31:43.103Z,18.88
2022-08-22T08:36:04.316Z,9.18
2022-08-22T08:40:28.671Z,9.45
2022-08-22T08:44:39.876Z,11.25
2022-08-22T08:48:45.620Z,11.63
2022-08-22T08:53:13.798Z,10.07
2022-08-22T08:57:54.182Z,8.82
2022-08-22T09:02:23.496Z,13.20
2022-08-22T09:06:34.944Z,10.40
2022-08-22T09:11:28.575Z,8.35
2022-08-22T09:15:55.032Z,16.45
2022-08-22T09:20:42.656Z,8.50
2022-08-22T09:25:19.296Z,8.48
2022-08-22T09:29:31.646Z,13.23
2022-08-22T09:33:55.044Z,11.50
2022-08-22T09:38:25.950Z,11.18
2022-08-22T09:42:44.876Z,7.60
2022-08-22T09:47:10.791Z,9.85
2022-08-22T09:51:31.549Z,12.85
2022-08-22T09:55:58.619Z,15.77
2022-08-22T10:00:22.238Z,13.27
2022-08-22T10:04:53.510Z,6.63
2022-08-22T10:09:09.100Z,6.93
2022-08-22T10:13:32.766Z,10.50
2022-08-22T10:17:55.549Z,10.00
2022-08-22T10:22:18.430Z,11.70
2022-08-22T10:26:23.006Z,19.77
2022-08-22T10:30:34.788Z,11.65
2022-08-22T10:34:43.286Z,10.85
2022-08-22T10:38:53.565Z,13.90
2022-08-22T10:43:06.010Z,11.93
2022-08-22T10:47:24.340Z,11.40
2022-08-22T10:51:35.705Z,11.77
2022-08-22T10:55:42.324Z,12.80
2022-08-22T10:59:50.590Z,17.55
2022-08-22T11:04:17.022Z,10.07
2022-08-22T11:08:29.989Z,6.20
2022-08-22T11:12:44.586Z,16.88
2022-08-22T11:17:28.015Z,9.88
2022-08-22T11:22:10.302Z,11.02
2022-08-22T11:26:47.423Z,14.30
2022-08-22T11:30:59.377Z,10.27
2022-08-22T11:35:08.867Z,12.35
2022-08-22T11:39:27.751Z,13.25
2022-08-22T11:43:50.854Z,10.65
2022-08-22T11:48:05.031Z,13.02
2022-08-22T11:52:10.005Z,14.45
2022-08-22T11:56:24.087Z,12.50
2022-08-22T12:00:40.665Z,16.45
2022-08-22T12:04:55.482Z,9.93
2022-08-22T12:09:31.867Z,12.88
2022-08-22T12:13:49.432Z,9.43
2022-08-22T12:18:04.654Z,16.90
2022-08-22T12:22:53.355Z,12.80
2022-08-22T12:27:07.746Z,9.90
2022-08-22T12:31:18.078Z,11.85
2022-08-22T12:35:20.626Z,15.98
2022-08-22T12:39:41.808Z,11.80
2022-08-22T12:44:16.432Z,12.70
2022-08-22T12:48:31.370Z,13.68
2022-08-22T12:52:42.594Z,15.68
2022-08-22T12:57:15.199Z,13.20
2022-08-22T13:01:34.557Z,11.73
2022-08-22T13:05:44.524Z,11.43
2022-08-22T13:10:17.615Z,12.48
2022-08-22T13:14:25.641Z,15.93
2022-08-22T13:18:36.702Z,15.82
2022-08-22T13:22:45.698Z,17.23
2022-08-22T13:26:55.925Z,19.83
2022-08-22T13:30:59.852Z,13.23
2022-08-22T13:35:04.985Z,13.05
2022-08-22T13:39:14.775Z,14.65
2022-08-22T13:43:27.284Z,14.48
2022-08-22T13:51:45.458Z,10.73
2022-08-22T13:55:53.280Z,17.27
2022-08-22T14:00:57.250Z,13.15
2022-08-22T14:05:05.975Z,17.50
2022-08-22T14:09:37.310Z,11.60
2022-08-22T14:13:45.279Z,11.43
2022-08-22T14:17:51.102Z,13.93
2022-08-22T14:22:05.585Z,11.38
2022-08-22T14:26:07.683Z,16.80
2022-08-22T14:30:19.024Z,20.80
2022-08-22T14:34:22.068Z,10.30
2022-08-22T14:38:30.199Z,16.92
2022-08-22T14:43:22.169Z,13.60
2022-08-22T14:48:14.064Z,14.93
2022-08-22T14:52:19.655Z,13.77
2022-08-22T14:56:27.763Z,17.50
2022-08-22T15:00:37.769Z,14.52
2022-08-22T15:04:43.832Z,21.90
2022-08-22T15:08:46.407Z,17.70
2022-08-22T15:12:53.924Z,12.55
2022-08-22T15:17:03.180Z,12.00
2022-08-22T15:21:12.431Z,16.80
2022-08-22T15:25:19.965Z,14.32
2022-08-22T15:29:31.563Z,20.17
2022-08-22T15:33:39.234Z,14.75
2022-08-22T15:38:05.482Z,10.60
2022-08-22T15:42:09.206Z,12.77
2022-08-22T15:46:38.771Z,18.45
2022-08-22T15:51:01.818Z,17.35
2022-08-22T15:55:08.017Z,12.02
2022-08-22T15:59:53.430Z,16.42
2022-08-22T16:04:05.814Z,16.38
2022-08-22T16:08:32.837Z,15.50
2022-08-22T16:12:44.149Z,12.13
2022-08-22T16:17:08.382Z,12.65
2022-08-22T16:21:21.042Z,9.32
2022-08-22T16:25:44.988Z,14.07
2022-08-22T16:29:47.546Z,14.18
2022-08-22T16:33:49.825Z,16.95
2022-08-22T16:37:59.620Z,21.70
2022-08-22T16:42:19.607Z,14.75
2022-08-22T16:46:37.473Z,16.73
2022-08-22T16:50:41.102Z,16.73
2022-08-22T16:54:55.884Z,22.95
2022-08-22T16:59:38.573Z,11.75
2022-08-22T17:04:10.421Z,17.55
2022-08-22T17:08:46.233Z,11.02
2022-08-22T17:13:27.485Z,11.90
2022-08-22T17:17:59.583Z,12.60
2022-08-22T17:22:29.003Z,9.30
2022-08-22T17:26:57.783Z,10.30
2022-08-22T17:31:18.458Z,11.80
2022-08-22T17:35:23.557Z,13.23
2022-08-22T17:39:46.490Z,16.55
2022-08-22T17:44:18.480Z,13.85
2022-08-22T17:48:43.704Z,15.63
2022-08-22T17:53:16.259Z,15.98
2022-08-22T17:57:40.524Z,11.13
2022-08-22T18:02:10.705Z,16.55
2022-08-22T18:06:24.689Z,14.38
2022-08-22T18:11:01.249Z,23.73
2022-08-22T18:15:07.803Z,29.35
2022-08-22T18:19:34.773Z,36.55
2022-08-22T18:23:44.970Z,17.48
2022-08-22T18:27:51.578Z,26.33
2022-08-22T18:32:18.908Z,19.33
2022-08-22T18:36:28.297Z,19.17
2022-08-22T18:40:49.996Z,17.42
2022-08-22T18:44:52.467Z,21.73
2022-08-22T18:49:14.489Z,28.23
2022-08-22T18:53:57.335Z,33.35
2022-08-22T18:58:16.475Z,29.90
2022-08-22T19:03:00.771Z,21.88
2022-08-22T19:07:12.535Z,18.10
2022-08-22T19:11:36.395Z,17.42
2022-08-22T19:16:01.121Z,17.98
2022-08-22T19:20:38.026Z,23.42
2022-08-22T19:25:08.852Z,23.60
2022-08-22T19:29:16.084Z,17.42
2022-08-22T19:33:34.601Z,23.17
2022-08-22T19:37:53.776Z,28.00
2022-08-22T19:46:08.475Z,20.27
2022-08-22T19:50:16.553Z,28.35
2022-08-22T19:54:24.413Z,20.60
2022-08-22T19:58:56.862Z,22.50
2022-08-22T20:03:07.436Z,18.60
2022-08-22T20:07:28.147Z,13.43
2022-08-22T20:11:53.539Z,19.35
2022-08-22T20:16:16.565Z,17.30
2022-08-22T20:20:24.109Z,24.95
2022-08-22T20:24:55.869Z,18.83
2022-08-22T20:29:03.246Z,20.45
2022-08-22T20:33:14.807Z,25.10
2022-08-22T20:37:35.825Z,17.52
2022-08-22T20:41:48.774Z,26.95
2022-08-22T20:46:12.621Z,26.85
2022-08-22T20:50:19.405Z,23.45
2022-08-22T20:54:24.396Z,20.35
2022-08-22T20:58:33.586Z,16.13
2022-08-22T21:02:48.130Z,21.35
2022-08-22T21:06:59.544Z,17.13
2022-08-22T21:11:24.996Z,20.70
2022-08-22T21:15:37.350Z,22.85
2022-08-22T21:19:39.404Z,18.85
2022-08-22T21:23:45.603Z,21.88
2022-08-22T21:27:48.364Z,18.10
2022-08-22T21:31:54.682Z,23.33
2022-08-22T21:36:01.303Z,28.15
2022-08-22T21:40:14.802Z,21.40
2022-08-22T21:44:37.787Z,25.58
2022-08-22T21:48:43.988Z,19.20
2022-08-22T21:52:55.268Z,21.13
2022-08-22T21:57:19.419Z,24.35
2022-08-22T22:01:32.929Z,20.92
2022-08-22T22:05:36.106Z,23.77
2022-08-22T22:09:38.198Z,22.15
2022-08-22T22:13:41.629Z,18.20
2022-08-22T22:17:44.117Z,22.35
2022-08-22T22:21:46.436Z,24.77
2022-08-22T22:25:49.863Z,23.63
2022-08-22T22:29:52.246Z,35.25
2022-08-22T22:33:54.623Z,27.73
2022-08-22T22:37:57.129Z,26.88
2022-08-22T22:41:59.266Z,23.02
2022-08-22T22:46:02.382Z,22.95
2022-08-22T22:50:06.345Z,27.90
2022-08-22T22:54:08.686Z,26.50
2022-08-22T22:58:15.819Z,26.80
2022-08-22T23:02:22.764Z,24.98
2022-08-22T23:06:27.474Z,26.85
2022-08-22T23:10:31.482Z,28.33
2022-08-22T23:14:35.225Z,31.88
2022-08-22T23:18:37.918Z,26.17
2022-08-22T23:22:43.587Z,25.98
2022-08-22T23:26:45.901Z,29.77
2022-08-22T23:30:48.072Z,29.13
2022-08-22T23:34:50.542Z,34.42
2022-08-22T23:38:53.229Z,32.85
2022-08-22T23:42:57.634Z,30.30
2022-08-22T23:47:00.780Z,28.55
2022-08-22T23:51:03.704Z,36.15
2022-08-22T23:55:06.436Z,30.77
2022-08-22T23:59:15.616Z,34.53
